Samus Swan — 9HA2333 — position and weather

sailwx.info

Track history (hours):
 
Tides and Currents Weather Stations Pressure Air Temp Water Temp Dewpoint Dewpoint Depression Visibility Wind Speed Wind Dir Waves Ship Positions

Samus Swan

Last reported at 2017-Mar-27 17:31 UTC. Time now 2017-Mar-27 18:29 UTC.
Position N 49°33' W 000°08'.

Length 106 m; draft 5.5 m.

Type: Tanker. MMSI: 248363000.

Date/timePositionNaut miles runAvg speedWind from/ knotsBaromVisibWave heightAir tempDewpointWater temp
2017-Mar-27 17:31N 49°33' W 000°08'0 0.0
2017-Mar-27 16:31N 49°33' W 000°08'0 0.0
2017-Mar-27 15:31N 49°33' W 000°08'0 0.0
2017-Mar-27 14:31N 49°33' W 000°08'0 0.0
2017-Mar-27 13:31N 49°33' W 000°08'0 0.0
2017-Mar-27 12:31N 49°33' W 000°08'0 0.0
2017-Mar-27 11:31N 49°33' W 000°08'0 0.1
2017-Mar-27 10:31N 49°33' W 000°08'0 0.1
2017-Mar-27 09:31N 49°33' W 000°07'0 0.0
2017-Mar-27 08:31N 49°34' W 000°07'0 0.0
2017-Mar-27 07:31N 49°33' W 000°07'0 0.1
2017-Mar-27 06:31N 49°33' W 000°07'0 0.1
2017-Mar-27 05:31N 49°33' W 000°08'0 0.1
2017-Mar-27 04:31N 49°33' W 000°08'0 0.0
2017-Mar-27 03:31N 49°33' W 000°08'0 0.0
2017-Mar-27 02:31N 49°33' W 000°08'0 0.0
2017-Mar-27 01:31N 49°33' W 000°08'0 0.0
2017-Mar-27 00:31N 49°33' W 000°08'0 0.0
2017-Mar-26 23:31N 49°33' W 000°08'0 0.0
2017-Mar-26 22:31N 49°33' W 000°08'0 0.1
2017-Mar-26 21:31N 49°33' W 000°08'0 0.1
2017-Mar-26 20:31N 49°33' W 000°07'6 6.3
2017-Mar-26 19:34N 49°39' W 000°12'8 8.2
2017-Mar-26 18:34N 49°44' W 000°21'8 8.2
2017-Mar-26 17:34N 49°52' W 000°25'6 5.9
2017-Mar-26 16:34N 49°47' W 000°29'5 4.5
2017-Mar-26 15:34N 49°45' W 000°36'8 7.7
2017-Mar-26 14:33N 49°48' W 000°47'8 7.6
2017-Mar-26 13:33N 49°52' W 000°57'3 3.4
2017-Mar-26 12:33N 49°50' W 001°02'1111.2
2017-Mar-26 11:34N 49°44' W 000°49'1110.9
2017-Mar-26 10:34N 49°37' W 000°35'1111.0
2017-Mar-26 09:34N 49°33' W 000°20'1010.4
2017-Mar-26 08:34N 49°29' W 000°05'1211.8
2017-Mar-26 07:34N 49°26' E 000°13'10 9.6
2017-Mar-26 06:34N 49°28' E 000°27'3 0.1
2017-Mar-25 06:27N 49°28' E 000°32'2 2.0
2017-Mar-25 05:33N 49°29' E 000°30'1211.7
2017-Mar-25 04:33N 49°26' E 000°13'1010.5
2017-Mar-25 03:33N 49°28' W 000°03'4 3.9
2017-Mar-25 02:33N 49°29' W 000°09'0 0.0
2017-Mar-25 01:33N 49°29' W 000°09'0 0.0
2017-Mar-25 00:33N 49°29' W 000°09'0 0.0
2017-Mar-24 23:33N 49°29' W 000°09'0 0.0
2017-Mar-24 22:33N 49°29' W 000°09'0 0.0
2017-Mar-24 21:33N 49°29' W 000°09'0 0.0
2017-Mar-24 20:33N 49°29' W 000°09'0 0.0
2017-Mar-24 19:33N 49°29' W 000°09'0 0.0
2017-Mar-24 18:33N 49°29' W 000°09'0 0.0
2017-Mar-24 17:33N 49°29' W 000°09'0 0.0
2017-Mar-24 16:30N 49°29' W 000°09'0 0.0
2017-Mar-24 15:33N 49°29' W 000°09'0 0.0
2017-Mar-24 14:33N 49°29' W 000°09'0 0.0
2017-Mar-24 13:33N 49°29' W 000°09'0 0.0
2017-Mar-24 12:33N 49°29' W 000°09'0 0.0
2017-Mar-24 11:33N 49°29' W 000°09'0 0.0
2017-Mar-24 10:33N 49°29' W 000°09'0 0.0
2017-Mar-24 09:33N 49°29' W 000°09'0 0.0
2017-Mar-24 08:33N 49°29' W 000°09'0 0.0
2017-Mar-24 07:33N 49°29' W 000°09'0 0.0
2017-Mar-24 06:33N 49°29' W 000°09'0 0.0
2017-Mar-24 05:33N 49°29' W 000°09'0 0.1
2017-Mar-24 04:33N 49°29' W 000°09'0 0.0
2017-Mar-24 03:33N 49°29' W 000°09'0 0.0
2017-Mar-24 02:33N 49°29' W 000°09'0 0.0
2017-Mar-24 01:33N 49°29' W 000°09'0 0.0
2017-Mar-24 00:33N 49°29' W 000°09'0 0.0
2017-Mar-23 23:33N 49°29' W 000°09'0 0.0
2017-Mar-23 22:33N 49°29' W 000°09'0 0.0
2017-Mar-23 21:33N 49°29' W 000°09'0 0.0
2017-Mar-23 20:33N 49°29' W 000°09'0 0.1
2017-Mar-23 19:33N 49°29' W 000°09'0 0.0
2017-Mar-23 18:33N 49°29' W 000°09'0 0.0
2017-Mar-23 17:33N 49°29' W 000°09'0 0.0
2017-Mar-23 16:33N 49°29' W 000°09'0 0.0
2017-Mar-23 15:33N 49°29' W 000°09'0 0.1
2017-Mar-23 14:33N 49°29' W 000°09'0 0.0
2017-Mar-23 13:33N 49°29' W 000°09'0 0.0
2017-Mar-23 12:33N 49°29' W 000°09'0 0.0
2017-Mar-23 11:33N 49°29' W 000°09'0 0.0
2017-Mar-23 10:33N 49°29' W 000°09'0 0.0
2017-Mar-23 09:33N 49°29' W 000°09'0 0.0
2017-Mar-23 08:33N 49°29' W 000°09'0 0.0
2017-Mar-23 07:33N 49°29' W 000°09'0 0.0
2017-Mar-23 06:33N 49°29' W 000°09'0 0.0
2017-Mar-23 05:33N 49°29' W 000°09'0 0.0
2017-Mar-23 04:33N 49°29' W 000°09'0 0.0
2017-Mar-23 03:33N 49°29' W 000°09'0 0.0
2017-Mar-23 02:33N 49°29' W 000°09'0 0.0
2017-Mar-23 01:33N 49°29' W 000°09'0 0.0
2017-Mar-23 00:33N 49°29' W 000°09'0 0.0
2017-Mar-22 23:33N 49°29' W 000°09'0 0.0
2017-Mar-22 22:33N 49°29' W 000°09'0 0.0
2017-Mar-22 21:33N 49°29' W 000°09'0 0.0
2017-Mar-22 20:33N 49°29' W 000°09'5 4.7
2017-Mar-22 19:33N 49°33' W 000°12'1111.3
2017-Mar-22 18:33N 49°44' W 000°11'1111.1
2017-Mar-22 17:33N 49°55' W 000°10'1110.7
2017-Mar-22 16:33N 50°06' W 000°08'1010.2
2017-Mar-22 15:33N 50°16' W 000°06'10 9.7
2017-Mar-22 14:33N 50°25' W 000°02'8 7.9
2017-Mar-22 13:31N 50°29' E 000°09'8 8.5
2017-Mar-22 12:33N 50°32' E 000°22'9 9.1
2017-Mar-22 11:33N 50°34' E 000°35'9 9.2
2017-Mar-22 10:33N 50°40' E 000°47'22 9.6
2017-Mar-22 08:18N 50°53' E 001°15'7 9.2
2017-Mar-22 07:33N 50°58' E 001°22'9 9.1
2017-Mar-22 06:33N 51°05' E 001°32'9 9.4
2017-Mar-22 05:33N 51°11' E 001°42'10 9.7
2017-Mar-22 04:33N 51°19' E 001°50'1010.4
2017-Mar-22 03:33N 51°28' E 001°59'1211.0
2017-Mar-22 02:30N 51°37' E 002°12'58 9.5
2017-Mar-21 20:24N 52°04' E 003°35'8 9.3
2017-Mar-21 19:33N 52°04' E 003°48'8 8.5
2017-Mar-21 18:33N 52°01' E 004°00'1111.4
2017-Mar-21 17:33N 51°54' E 004°16'1 1.4
2017-Mar-21 16:31N 51°53' E 004°17'0 0.0
2017-Mar-21 15:31N 51°53' E 004°17'0 0.0
2017-Mar-21 14:31N 51°53' E 004°17'0 0.0
2017-Mar-21 13:31N 51°53' E 004°17'0 0.0
2017-Mar-21 12:31N 51°53' E 004°17'0 0.0
2017-Mar-21 11:31N 51°53' E 004°17'0 0.0
2017-Mar-21 10:31N 51°53' E 004°17'0 0.0
2017-Mar-21 09:31N 51°53' E 004°17'0 0.0
2017-Mar-21 08:22N 51°53' E 004°17'0 0.0
2017-Mar-21 07:31N 51°53' E 004°17'0 0.0
2017-Mar-21 06:19N 51°53' E 004°17'0 0.0
2017-Mar-21 05:28N 51°53' E 004°17'0 0.0
2017-Mar-21 04:31N 51°53' E 004°17'0 0.0
2017-Mar-21 03:31N 51°53' E 004°17'0 0.0
2017-Mar-21 02:28N 51°53' E 004°17'0 0.0
2017-Mar-21 01:31N 51°53' E 004°17'0 0.0
2017-Mar-21 00:28N 51°53' E 004°17'0 0.0
2017-Mar-20 23:19N 51°53' E 004°17'0 0.0
2017-Mar-20 22:31N 51°53' E 004°17'0 0.0
2017-Mar-20 21:28N 51°53' E 004°17'0 0.0
2017-Mar-20 20:13N 51°53' E 004°17'0 0.0
2017-Mar-20 19:13N 51°53' E 004°17'0 0.0
2017-Mar-20 18:07N 51°53' E 004°17'0 0.0
2017-Mar-20 17:25N 51°53' E 004°17'0 0.0
2017-Mar-20 16:28N 51°53' E 004°17'0 0.0
2017-Mar-20 15:16N 51°53' E 004°17'0 0.0
2017-Mar-20 14:31N 51°53' E 004°17'0 0.0
2017-Mar-20 13:33N 51°53' E 004°17'4 4.2
2017-Mar-20 12:33N 51°56' E 004°12'9 9.2
2017-Mar-20 11:33N 51°60' E 003°59'8 7.8
2017-Mar-20 10:33N 51°58' E 003°46'2 2.0
2017-Mar-20 09:31N 51°56' E 003°45'0 0.0
2017-Mar-20 08:31N 51°56' E 003°45'0 0.0
2017-Mar-20 07:31N 51°56' E 003°45'0 0.0
2017-Mar-20 06:31N 51°56' E 003°45'0 0.0
2017-Mar-20 05:31N 51°56' E 003°45'0 0.0
2017-Mar-20 04:25N 51°56' E 003°45'0 0.0
2017-Mar-20 03:31N 51°56' E 003°45'0 0.0
2017-Mar-20 02:31N 51°56' E 003°45'0 0.0
2017-Mar-20 01:28N 51°56' E 003°45'0 0.0
2017-Mar-20 00:22N 51°56' E 003°45'0 0.0
2017-Mar-19 23:31N 51°56' E 003°45'0 0.0
2017-Mar-19 22:31N 51°56' E 003°45'0 0.0
2017-Mar-19 21:31N 51°56' E 003°45'0 0.0
2017-Mar-19 20:25N 51°56' E 003°45'0 0.0
2017-Mar-19 19:31N 51°56' E 003°45'0 0.0
2017-Mar-19 18:31N 51°56' E 003°45'0 0.0
2017-Mar-19 17:34N 51°56' E 003°45'0 0.0
2017-Mar-19 16:33N 51°56' E 003°45'0 0.0
2017-Mar-19 15:34N 51°56' E 003°45'0 0.0
2017-Mar-19 14:33N 51°56' E 003°45'1 1.1
2017-Mar-19 13:33N 51°57' E 003°46'7 7.0
2017-Mar-19 12:34N 52°02' E 003°54'1010.2
2017-Mar-19 11:34N 51°58' E 004°09'8 6.8
2017-Mar-19 10:27N 51°53' E 004°18'0 0.0
2017-Mar-19 09:33N 51°53' E 004°18'0 0.0
2017-Mar-19 08:30N 51°53' E 004°18'0 0.0
2017-Mar-19 07:33N 51°53' E 004°18'0 0.0
2017-Mar-19 06:33N 51°53' E 004°18'0 0.0
2017-Mar-19 05:33N 51°53' E 004°18'0 0.0
2017-Mar-19 04:33N 51°53' E 004°18'0 0.0
2017-Mar-19 03:33N 51°53' E 004°18'0 0.0
2017-Mar-19 02:27N 51°53' E 004°18'0 0.0
2017-Mar-19 01:33N 51°53' E 004°18'0 0.0
2017-Mar-19 00:33N 51°53' E 004°18'0 0.0
2017-Mar-18 23:33N 51°53' E 004°18'0 0.0
2017-Mar-18 22:33N 51°53' E 004°18'0 0.0
2017-Mar-18 21:33N 51°53' E 004°18'0 0.0
2017-Mar-18 20:33N 51°53' E 004°18'0 0.0
2017-Mar-18 19:33N 51°53' E 004°18'0 0.0
2017-Mar-18 18:33N 51°53' E 004°18'0 0.0
2017-Mar-18 17:33N 51°53' E 004°18'0 0.0
2017-Mar-18 16:33N 51°53' E 004°18'1 1.3
2017-Mar-18 15:33N 51°54' E 004°17'9 8.6
2017-Mar-18 14:33N 51°59' E 004°06'10 9.8
2017-Mar-18 13:33N 51°59' E 003°50'58 8.2
2017-Mar-18 06:30N 51°36' E 002°24'1111.5
2017-Mar-18 05:33N 51°27' E 002°14'1211.7
2017-Mar-18 04:31N 51°16' E 002°06'1212.6
2017-Mar-18 03:33N 51°09' E 001°50'1413.2
2017-Mar-18 02:30N 50°59' E 001°34'6910.9
2017-Mar-17 20:09N 50°18' E 000°07'5 9.2
2017-Mar-17 19:33N 50°14' E 000°01'10 9.9
2017-Mar-17 18:33N 50°05' W 000°04'10 9.9
2017-Mar-17 17:33N 49°55' W 000°08'  
Track history (hours):
 
Tides and Currents Weather Stations Pressure Air Temp Water Temp Dewpoint Dewpoint Depression Visibility Wind Speed Wind Dir Waves Ship Positions

Samus Swan

Last reported at 2017-Mar-27 17:31 UTC. Time now 2017-Mar-27 18:29 UTC.
Position N 49°33' W 000°08'.

Length 106 m; draft 5.5 m.

Type: Tanker. MMSI: 248363000.

Date/timePositionNaut miles runAvg speedWind from/ knotsBaromVisibWave heightAir tempDewpointWater temp
2017-Mar-27 17:31N 49°33' W 000°08'0 0.0
2017-Mar-27 16:31N 49°33' W 000°08'0 0.0
2017-Mar-27 15:31N 49°33' W 000°08'0 0.0
2017-Mar-27 14:31N 49°33' W 000°08'0 0.0
2017-Mar-27 13:31N 49°33' W 000°08'0 0.0
2017-Mar-27 12:31N 49°33' W 000°08'0 0.0
2017-Mar-27 11:31N 49°33' W 000°08'0 0.1
2017-Mar-27 10:31N 49°33' W 000°08'0 0.1
2017-Mar-27 09:31N 49°33' W 000°07'0 0.0
2017-Mar-27 08:31N 49°34' W 000°07'0 0.0
2017-Mar-27 07:31N 49°33' W 000°07'0 0.1
2017-Mar-27 06:31N 49°33' W 000°07'0 0.1
2017-Mar-27 05:31N 49°33' W 000°08'0 0.1
2017-Mar-27 04:31N 49°33' W 000°08'0 0.0
2017-Mar-27 03:31N 49°33' W 000°08'0 0.0
2017-Mar-27 02:31N 49°33' W 000°08'0 0.0
2017-Mar-27 01:31N 49°33' W 000°08'0 0.0
2017-Mar-27 00:31N 49°33' W 000°08'0 0.0
2017-Mar-26 23:31N 49°33' W 000°08'0 0.0
2017-Mar-26 22:31N 49°33' W 000°08'0 0.1
2017-Mar-26 21:31N 49°33' W 000°08'0 0.1
2017-Mar-26 20:31N 49°33' W 000°07'6 6.3
2017-Mar-26 19:34N 49°39' W 000°12'8 8.2
2017-Mar-26 18:34N 49°44' W 000°21'8 8.2
2017-Mar-26 17:34N 49°52' W 000°25'6 5.9
2017-Mar-26 16:34N 49°47' W 000°29'5 4.5
2017-Mar-26 15:34N 49°45' W 000°36'8 7.7
2017-Mar-26 14:33N 49°48' W 000°47'8 7.6
2017-Mar-26 13:33N 49°52' W 000°57'3 3.4
2017-Mar-26 12:33N 49°50' W 001°02'1111.2
2017-Mar-26 11:34N 49°44' W 000°49'1110.9
2017-Mar-26 10:34N 49°37' W 000°35'1111.0
2017-Mar-26 09:34N 49°33' W 000°20'1010.4
2017-Mar-26 08:34N 49°29' W 000°05'1211.8
2017-Mar-26 07:34N 49°26' E 000°13'10 9.6
2017-Mar-26 06:34N 49°28' E 000°27'3 0.1
2017-Mar-25 06:27N 49°28' E 000°32'2 2.0
2017-Mar-25 05:33N 49°29' E 000°30'1211.7
2017-Mar-25 04:33N 49°26' E 000°13'1010.5
2017-Mar-25 03:33N 49°28' W 000°03'4 3.9
2017-Mar-25 02:33N 49°29' W 000°09'0 0.0
2017-Mar-25 01:33N 49°29' W 000°09'0 0.0
2017-Mar-25 00:33N 49°29' W 000°09'0 0.0
2017-Mar-24 23:33N 49°29' W 000°09'0 0.0
2017-Mar-24 22:33N 49°29' W 000°09'0 0.0
2017-Mar-24 21:33N 49°29' W 000°09'0 0.0
2017-Mar-24 20:33N 49°29' W 000°09'0 0.0
2017-Mar-24 19:33N 49°29' W 000°09'0 0.0
2017-Mar-24 18:33N 49°29' W 000°09'0 0.0
2017-Mar-24 17:33N 49°29' W 000°09'0 0.0
2017-Mar-24 16:30N 49°29' W 000°09'0 0.0
2017-Mar-24 15:33N 49°29' W 000°09'0 0.0
2017-Mar-24 14:33N 49°29' W 000°09'0 0.0
2017-Mar-24 13:33N 49°29' W 000°09'0 0.0
2017-Mar-24 12:33N 49°29' W 000°09'0 0.0
2017-Mar-24 11:33N 49°29' W 000°09'0 0.0
2017-Mar-24 10:33N 49°29' W 000°09'0 0.0
2017-Mar-24 09:33N 49°29' W 000°09'0 0.0
2017-Mar-24 08:33N 49°29' W 000°09'0 0.0
2017-Mar-24 07:33N 49°29' W 000°09'0 0.0
2017-Mar-24 06:33N 49°29' W 000°09'0 0.0
2017-Mar-24 05:33N 49°29' W 000°09'0 0.1
2017-Mar-24 04:33N 49°29' W 000°09'0 0.0
2017-Mar-24 03:33N 49°29' W 000°09'0 0.0
2017-Mar-24 02:33N 49°29' W 000°09'0 0.0
2017-Mar-24 01:33N 49°29' W 000°09'0 0.0
2017-Mar-24 00:33N 49°29' W 000°09'0 0.0
2017-Mar-23 23:33N 49°29' W 000°09'0 0.0
2017-Mar-23 22:33N 49°29' W 000°09'0 0.0
2017-Mar-23 21:33N 49°29' W 000°09'0 0.0
2017-Mar-23 20:33N 49°29' W 000°09'0 0.1
2017-Mar-23 19:33N 49°29' W 000°09'0 0.0
2017-Mar-23 18:33N 49°29' W 000°09'0 0.0
2017-Mar-23 17:33N 49°29' W 000°09'0 0.0
2017-Mar-23 16:33N 49°29' W 000°09'0 0.0
2017-Mar-23 15:33N 49°29' W 000°09'0 0.1
2017-Mar-23 14:33N 49°29' W 000°09'0 0.0
2017-Mar-23 13:33N 49°29' W 000°09'0 0.0
2017-Mar-23 12:33N 49°29' W 000°09'0 0.0
2017-Mar-23 11:33N 49°29' W 000°09'0 0.0
2017-Mar-23 10:33N 49°29' W 000°09'0 0.0
2017-Mar-23 09:33N 49°29' W 000°09'0 0.0
2017-Mar-23 08:33N 49°29' W 000°09'0 0.0
2017-Mar-23 07:33N 49°29' W 000°09'0 0.0
2017-Mar-23 06:33N 49°29' W 000°09'0 0.0
2017-Mar-23 05:33N 49°29' W 000°09'0 0.0
2017-Mar-23 04:33N 49°29' W 000°09'0 0.0
2017-Mar-23 03:33N 49°29' W 000°09'0 0.0
2017-Mar-23 02:33N 49°29' W 000°09'0 0.0
2017-Mar-23 01:33N 49°29' W 000°09'0 0.0
2017-Mar-23 00:33N 49°29' W 000°09'0 0.0
2017-Mar-22 23:33N 49°29' W 000°09'0 0.0
2017-Mar-22 22:33N 49°29' W 000°09'0 0.0
2017-Mar-22 21:33N 49°29' W 000°09'0 0.0
2017-Mar-22 20:33N 49°29' W 000°09'5 4.7
2017-Mar-22 19:33N 49°33' W 000°12'1111.3
2017-Mar-22 18:33N 49°44' W 000°11'1111.1
2017-Mar-22 17:33N 49°55' W 000°10'1110.7
2017-Mar-22 16:33N 50°06' W 000°08'1010.2
2017-Mar-22 15:33N 50°16' W 000°06'10 9.7
2017-Mar-22 14:33N 50°25' W 000°02'8 7.9
2017-Mar-22 13:31N 50°29' E 000°09'8 8.5
2017-Mar-22 12:33N 50°32' E 000°22'9 9.1
2017-Mar-22 11:33N 50°34' E 000°35'9 9.2
2017-Mar-22 10:33N 50°40' E 000°47'22 9.6
2017-Mar-22 08:18N 50°53' E 001°15'7 9.2
2017-Mar-22 07:33N 50°58' E 001°22'9 9.1
2017-Mar-22 06:33N 51°05' E 001°32'9 9.4
2017-Mar-22 05:33N 51°11' E 001°42'10 9.7
2017-Mar-22 04:33N 51°19' E 001°50'1010.4
2017-Mar-22 03:33N 51°28' E 001°59'1211.0
2017-Mar-22 02:30N 51°37' E 002°12'58 9.5
2017-Mar-21 20:24N 52°04' E 003°35'8 9.3
2017-Mar-21 19:33N 52°04' E 003°48'8 8.5
2017-Mar-21 18:33N 52°01' E 004°00'1111.4
2017-Mar-21 17:33N 51°54' E 004°16'1 1.4
2017-Mar-21 16:31N 51°53' E 004°17'0 0.0
2017-Mar-21 15:31N 51°53' E 004°17'0 0.0
2017-Mar-21 14:31N 51°53' E 004°17'0 0.0
2017-Mar-21 13:31N 51°53' E 004°17'0 0.0
2017-Mar-21 12:31N 51°53' E 004°17'0 0.0
2017-Mar-21 11:31N 51°53' E 004°17'0 0.0
2017-Mar-21 10:31N 51°53' E 004°17'0 0.0
2017-Mar-21 09:31N 51°53' E 004°17'0 0.0
2017-Mar-21 08:22N 51°53' E 004°17'0 0.0
2017-Mar-21 07:31N 51°53' E 004°17'0 0.0
2017-Mar-21 06:19N 51°53' E 004°17'0 0.0
2017-Mar-21 05:28N 51°53' E 004°17'0 0.0
2017-Mar-21 04:31N 51°53' E 004°17'0 0.0
2017-Mar-21 03:31N 51°53' E 004°17'0 0.0
2017-Mar-21 02:28N 51°53' E 004°17'0 0.0
2017-Mar-21 01:31N 51°53' E 004°17'0 0.0
2017-Mar-21 00:28N 51°53' E 004°17'0 0.0
2017-Mar-20 23:19N 51°53' E 004°17'0 0.0
2017-Mar-20 22:31N 51°53' E 004°17'0 0.0
2017-Mar-20 21:28N 51°53' E 004°17'0 0.0
2017-Mar-20 20:13N 51°53' E 004°17'0 0.0
2017-Mar-20 19:13N 51°53' E 004°17'0 0.0
2017-Mar-20 18:07N 51°53' E 004°17'0 0.0
2017-Mar-20 17:25N 51°53' E 004°17'0 0.0
2017-Mar-20 16:28N 51°53' E 004°17'0 0.0
2017-Mar-20 15:16N 51°53' E 004°17'0 0.0
2017-Mar-20 14:31N 51°53' E 004°17'0 0.0
2017-Mar-20 13:33N 51°53' E 004°17'4 4.2
2017-Mar-20 12:33N 51°56' E 004°12'9 9.2
2017-Mar-20 11:33N 51°60' E 003°59'8 7.8
2017-Mar-20 10:33N 51°58' E 003°46'2 2.0
2017-Mar-20 09:31N 51°56' E 003°45'0 0.0
2017-Mar-20 08:31N 51°56' E 003°45'0 0.0
2017-Mar-20 07:31N 51°56' E 003°45'0 0.0
2017-Mar-20 06:31N 51°56' E 003°45'0 0.0
2017-Mar-20 05:31N 51°56' E 003°45'0 0.0
2017-Mar-20 04:25N 51°56' E 003°45'0 0.0
2017-Mar-20 03:31N 51°56' E 003°45'0 0.0
2017-Mar-20 02:31N 51°56' E 003°45'0 0.0
2017-Mar-20 01:28N 51°56' E 003°45'0 0.0
2017-Mar-20 00:22N 51°56' E 003°45'0 0.0
2017-Mar-19 23:31N 51°56' E 003°45'0 0.0
2017-Mar-19 22:31N 51°56' E 003°45'0 0.0
2017-Mar-19 21:31N 51°56' E 003°45'0 0.0
2017-Mar-19 20:25N 51°56' E 003°45'0 0.0
2017-Mar-19 19:31N 51°56' E 003°45'0 0.0
2017-Mar-19 18:31N 51°56' E 003°45'0 0.0
2017-Mar-19 17:34N 51°56' E 003°45'0 0.0
2017-Mar-19 16:33N 51°56' E 003°45'0 0.0
2017-Mar-19 15:34N 51°56' E 003°45'0 0.0
2017-Mar-19 14:33N 51°56' E 003°45'1 1.1
2017-Mar-19 13:33N 51°57' E 003°46'7 7.0
2017-Mar-19 12:34N 52°02' E 003°54'1010.2
2017-Mar-19 11:34N 51°58' E 004°09'8 6.8
2017-Mar-19 10:27N 51°53' E 004°18'0 0.0
2017-Mar-19 09:33N 51°53' E 004°18'0 0.0
2017-Mar-19 08:30N 51°53' E 004°18'0 0.0
2017-Mar-19 07:33N 51°53' E 004°18'0 0.0
2017-Mar-19 06:33N 51°53' E 004°18'0 0.0
2017-Mar-19 05:33N 51°53' E 004°18'0 0.0
2017-Mar-19 04:33N 51°53' E 004°18'0 0.0
2017-Mar-19 03:33N 51°53' E 004°18'0 0.0
2017-Mar-19 02:27N 51°53' E 004°18'0 0.0
2017-Mar-19 01:33N 51°53' E 004°18'0 0.0
2017-Mar-19 00:33N 51°53' E 004°18'0 0.0
2017-Mar-18 23:33N 51°53' E 004°18'0 0.0
2017-Mar-18 22:33N 51°53' E 004°18'0 0.0
2017-Mar-18 21:33N 51°53' E 004°18'0 0.0
2017-Mar-18 20:33N 51°53' E 004°18'0 0.0
2017-Mar-18 19:33N 51°53' E 004°18'0 0.0
2017-Mar-18 18:33N 51°53' E 004°18'0 0.0
2017-Mar-18 17:33N 51°53' E 004°18'0 0.0
2017-Mar-18 16:33N 51°53' E 004°18'1 1.3
2017-Mar-18 15:33N 51°54' E 004°17'9 8.6
2017-Mar-18 14:33N 51°59' E 004°06'10 9.8
2017-Mar-18 13:33N 51°59' E 003°50'58 8.2
2017-Mar-18 06:30N 51°36' E 002°24'1111.5
2017-Mar-18 05:33N 51°27' E 002°14'1211.7
2017-Mar-18 04:31N 51°16' E 002°06'1212.6
2017-Mar-18 03:33N 51°09' E 001°50'1413.2
2017-Mar-18 02:30N 50°59' E 001°34'6910.9
2017-Mar-17 20:09N 50°18' E 000°07'5 9.2
2017-Mar-17 19:33N 50°14' E 000°01'10 9.9
2017-Mar-17 18:33N 50°05' W 000°04'10 9.9
2017-Mar-17 17:33N 49°55' W 000°08'  

Dump ship's entire track history